Terminal Aerodrome Forecast
Issued by NWS

Home | Current Version | Previous Version | Text Only | Print | Product List | Glossary On
Versions: 1 2 3 4 5 6 7 8 9 10 11 12 13 14 15 16 17 18 19 20
254
FTUS43 KSGF 251134
TAFJLN
TAF
KJLN 251134Z 2512/2612 VRB05KT 6SM -SHRA VCTS SCT030CB BKN050
      OVC100
      TEMPO 2512/2515 6SM BR BKN030 OVC050
     FM251600 18010KT P6SM SCT035 BKN050 OVC120
     FM251800 19014KT P6SM SCT040 SCT120
     FM260800 19009KT P6SM BKN040=

USA.gov is the U.S. government's official web portal to all federal, state and local government web resources and services.